This is the latest recevied weather packets stored in our database for station/object SQ8SW-4. If no packets are shown the sender has not sent any weather packets the latest 10 day(s).
| Time | Temp. | Humidity | Pressure | Rain* | Wind** | Luminosity | Snow |
|---|---|---|---|---|---|---|---|
| 1777454195 | 8.33° C | 49% | 996 hPa | - | - | - | - |
| 1777453293 | 8.33° C | 50% | 996 hPa | - | - | - | - |
| 1777452390 | 8.33° C | 50% | 996 hPa | - | - | - | - |
| 1777451488 | 8.89° C | 50% | 996 hPa | - | - | - | - |
| 1777450586 | 8.33° C | 50% | 996 hPa | - | - | - | - |
| 1777449684 | 8.33° C | 51% | 996 hPa | - | - | - | - |
| 1777448782 | 8.33° C | 50% | 996 hPa | - | - | - | - |
| 1777447879 | 8.33° C | 50% | 996 hPa | - | - | - | - |
| 1777446977 | 7.78° C | 50% | 996 hPa | - | - | - | - |
| 1777446075 | 6.67° C | 54% | 996 hPa | - | - | - | - |
| 1777445173 | 6.11° C | 57% | 996 hPa | - | - | - | - |
| 1777444271 | 5.56° C | 61% | 996 hPa | - | - | - | - |
| 1777443368 | 4.44° C | 62% | 996 hPa | - | - | - | - |
| 1777442466 | 3.89° C | 63% | 996 hPa | - | - | - | - |
| 1777441564 | 3.33° C | 66% | 996 hPa | - | - | - | - |
| 1777440662 | 2.78° C | 65% | 996 hPa | - | - | - | - |
| 1777439759 | 2.22° C | 68% | 996 hPa | - | - | - | - |
| 1777438857 | 2.22° C | 69% | 996 hPa | - | - | - | - |
| 1777436151 | 0° C | 76% | 996 hPa | - | - | - | - |
| 1777432542 | 0° C | 76% | 995 hPa | - | - | - | - |
| 1777423520 | 1.11° C | 74% | 995 hPa | - | - | - | - |
| 1777409986 | 5° C | 59% | 995 hPa | - | - | - | - |
| 1777408181 | 5° C | 57% | 995 hPa | - | - | - | - |
| 1777407279 | 5.56° C | 56% | 995 hPa | - | - | - | - |
| 1777406377 | 6.11° C | 54% | 995 hPa | - | - | - | - |
* Rain since midnight (hover to see other rain measurements)
** Current wind speed in m/s (hover to see current wind gust speed)